sensor_id;sensor_type;location;lat;lon;timestamp;temperature;humidity
9800;DHT22;4939;52.00085300;4.17406100;2023-02-01T00:01:35;8.10;99.90
9800;DHT22;4939;52.00085300;4.17406100;2023-02-01T00:04:01;8.10;99.90
9800;DHT22;4939;52.00085300;4.17406100;2023-02-01T00:06:26;8.10;99.90
9800;DHT22;4939;52.00085300;4.17406100;2023-02-01T00:08:53;8.00;99.90
9800;DHT22;4939;52.00085300;4.17406100;2023-02-01T00:11:19;8.00;99.90
9800;DHT22;4939;52.00085300;4.17406100;2023-02-01T00:13:45;8.00;99.90
9800;DHT22;4939;52.00085300;4.17406100;2023-02-01T00:16:14;8.10;99.90
9800;DHT22;4939;52.00085300;4.17406100;2023-02-01T00:18:42;8.00;99.90
9800;DHT22;4939;52.00085300;4.17406100;2023-02-01T00:21:10;8.10;99.90
9800;DHT22;4939;52.00085300;4.17406100;2023-02-01T00:23:36;8.10;99.90
9800;DHT22;4939;52.00085300;4.17406100;2023-02-01T00:26:05;8.10;99.90
9800;DHT22;4939;52.00085300;4.17406100;2023-02-01T00:28:31;8.10;99.90
9800;DHT22;4939;52.00085300;4.17406100;2023-02-01T00:30:59;8.10;99.90
9800;DHT22;4939;52.00085300;4.17406100;2023-02-01T00:33:25;8.10;99.90
9800;DHT22;4939;52.00085300;4.17406100;2023-02-01T00:35:55;8.10;99.90
9800;DHT22;4939;52.00085300;4.17406100;2023-02-01T00:38:21;8.10;99.90
9800;DHT22;4939;52.00085300;4.17406100;2023-02-01T00:40:46;8.00;99.90
9800;DHT22;4939;52.00085300;4.17406100;2023-02-01T00:43:12;8.00;99.90
9800;DHT22;4939;52.00085300;4.17406100;2023-02-01T00:45:38;8.00;99.90
9800;DHT22;4939;52.00085300;4.17406100;2023-02-01T00:48:04;8.00;99.90
9800;DHT22;4939;52.00085300;4.17406100;2023-02-01T00:50:29;8.00;99.90
9800;DHT22;4939;52.00085300;4.17406100;2023-02-01T00:52:55;8.00;99.90
9800;DHT22;4939;52.00085300;4.17406100;2023-02-01T00:55:21;8.00;99.90
9800;DHT22;4939;52.00085300;4.17406100;2023-02-01T00:57:46;8.00;99.90
9800;DHT22;4939;52.00085300;4.17406100;2023-02-01T01:00:12;8.00;99.90
9800;DHT22;4939;52.00085300;4.17406100;2023-02-01T01:02:38;8.00;99.90
9800;DHT22;4939;52.00085300;4.17406100;2023-02-01T01:05:04;8.00;99.90
9800;DHT22;4939;52.00085300;4.17406100;2023-02-01T01:07:30;8.00;99.90
9800;DHT22;4939;52.00085300;4.17406100;2023-02-01T01:09:55;8.00;99.90
9800;DHT22;4939;52.00085300;4.17406100;2023-02-01T01:12:21;8.10;99.90
9800;DHT22;4939;52.00085300;4.17406100;2023-02-01T01:14:47;8.10;99.90
9800;DHT22;4939;52.00085300;4.17406100;2023-02-01T01:17:13;8.10;99.90
9800;DHT22;4939;52.00085300;4.17406100;2023-02-01T01:19:38;8.10;99.90
9800;DHT22;4939;52.00085300;4.17406100;2023-02-01T01:22:04;8.10;99.90
9800;DHT22;4939;52.00085300;4.17406100;2023-02-01T01:24:30;8.10;99.90
9800;DHT22;4939;52.00085300;4.17406100;2023-02-01T01:26:55;8.10;99.90
9800;DHT22;4939;52.00085300;4.17406100;2023-02-01T01:29:21;8.00;99.90
9800;DHT22;4939;52.00085300;4.17406100;2023-02-01T01:31:47;7.90;99.90
9800;DHT22;4939;52.00085300;4.17406100;2023-02-01T01:34:13;7.90;99.90
9800;DHT22;4939;52.00085300;4.17406100;2023-02-01T01:36:39;7.90;99.90
9800;DHT22;4939;52.00085300;4.17406100;2023-02-01T01:39:05;7.90;99.90
9800;DHT22;4939;52.00085300;4.17406100;2023-02-01T01:41:31;7.90;99.90
9800;DHT22;4939;52.00085300;4.17406100;2023-02-01T01:46:30;7.90;99.90
9800;DHT22;4939;52.00085300;4.17406100;2023-02-01T01:49:07;7.90;99.90
9800;DHT22;4939;52.00085300;4.17406100;2023-02-01T01:51:42;7.90;99.90
9800;DHT22;4939;52.00085300;4.17406100;2023-02-01T01:54:14;7.90;99.90
9800;DHT22;4939;52.00085300;4.17406100;2023-02-01T01:56:43;7.90;99.90
9800;DHT22;4939;52.00085300;4.17406100;2023-02-01T01:59:11;7.90;99.90
9800;DHT22;4939;52.00085300;4.17406100;2023-02-01T02:01:36;8.00;99.90
9800;DHT22;4939;52.00085300;4.17406100;2023-02-01T02:04:02;7.90;99.90
9800;DHT22;4939;52.00085300;4.17406100;2023-02-01T02:09:00;7.90;99.90
9800;DHT22;4939;52.00085300;4.17406100;2023-02-01T02:11:26;8.00;99.90
9800;DHT22;4939;52.00085300;4.17406100;2023-02-01T02:13:53;7.90;99.90
9800;DHT22;4939;52.00085300;4.17406100;2023-02-01T02:16:36;7.90;99.90
9800;DHT22;4939;52.00085300;4.17406100;2023-02-01T02:19:30;7.90;99.90
9800;DHT22;4939;52.00085300;4.17406100;2023-02-01T02:27:49;7.90;99.90
9800;DHT22;4939;52.00085300;4.17406100;2023-02-01T02:41:13;7.90;99.90
9800;DHT22;4939;52.00085300;4.17406100;2023-02-01T02:44:09;7.90;99.90
9800;DHT22;4939;52.00085300;4.17406100;2023-02-01T02:47:02;7.90;99.90
9800;DHT22;4939;52.00085300;4.17406100;2023-02-01T02:50:05;7.90;99.90
9800;DHT22;4939;52.00085300;4.17406100;2023-02-01T02:53:20;7.90;99.90
9800;DHT22;4939;52.00085300;4.17406100;2023-02-01T02:56:06;7.80;99.90
9800;DHT22;4939;52.00085300;4.17406100;2023-02-01T02:58:52;7.90;99.90
9800;DHT22;4939;52.00085300;4.17406100;2023-02-01T03:01:38;7.90;99.90
9800;DHT22;4939;52.00085300;4.17406100;2023-02-01T03:04:24;7.80;99.90
9800;DHT22;4939;52.00085300;4.17406100;2023-02-01T03:06:52;7.90;99.90
9800;DHT22;4939;52.00085300;4.17406100;2023-02-01T03:09:26;7.80;99.90
9800;DHT22;4939;52.00085300;4.17406100;2023-02-01T03:11:58;7.80;99.90
9800;DHT22;4939;52.00085300;4.17406100;2023-02-01T03:14:46;7.80;99.90
9800;DHT22;4939;52.00085300;4.17406100;2023-02-01T03:17:18;7.80;99.90
9800;DHT22;4939;52.00085300;4.17406100;2023-02-01T03:19:46;7.80;99.90
9800;DHT22;4939;52.00085300;4.17406100;2023-02-01T03:22:18;7.80;99.90
9800;DHT22;4939;52.00085300;4.17406100;2023-02-01T03:24:55;7.70;99.90
9800;DHT22;4939;52.00085300;4.17406100;2023-02-01T03:27:29;7.70;99.90
9800;DHT22;4939;52.00085300;4.17406100;2023-02-01T03:32:49;7.70;99.90
9800;DHT22;4939;52.00085300;4.17406100;2023-02-01T03:36:05;7.70;99.90
9800;DHT22;4939;52.00085300;4.17406100;2023-02-01T03:39:00;7.70;99.90
9800;DHT22;4939;52.00085300;4.17406100;2023-02-01T03:44:15;7.70;99.90
9800;DHT22;4939;52.00085300;4.17406100;2023-02-01T03:47:07;7.70;99.90
9800;DHT22;4939;52.00085300;4.17406100;2023-02-01T03:49:44;7.80;99.90
9800;DHT22;4939;52.00085300;4.17406100;2023-02-01T03:52:14;7.70;99.90
9800;DHT22;4939;52.00085300;4.17406100;2023-02-01T03:54:40;7.80;99.90
9800;DHT22;4939;52.00085300;4.17406100;2023-02-01T03:57:11;7.80;99.90
9800;DHT22;4939;52.00085300;4.17406100;2023-02-01T03:59:42;7.80;99.90
9800;DHT22;4939;52.00085300;4.17406100;2023-02-01T04:02:07;7.80;99.90
9800;DHT22;4939;52.00085300;4.17406100;2023-02-01T04:04:34;7.80;99.90
9800;DHT22;4939;52.00085300;4.17406100;2023-02-01T04:07:00;7.80;99.90
9800;DHT22;4939;52.00085300;4.17406100;2023-02-01T04:09:25;7.90;99.90
9800;DHT22;4939;52.00085300;4.17406100;2023-02-01T04:11:51;7.90;99.90
9800;DHT22;4939;52.00085300;4.17406100;2023-02-01T04:14:17;7.90;99.90
9800;DHT22;4939;52.00085300;4.17406100;2023-02-01T04:16:42;7.80;99.90
9800;DHT22;4939;52.00085300;4.17406100;2023-02-01T04:19:08;7.80;99.90
9800;DHT22;4939;52.00085300;4.17406100;2023-02-01T04:21:34;7.80;99.90
9800;DHT22;4939;52.00085300;4.17406100;2023-02-01T04:23:59;7.80;99.90
9800;DHT22;4939;52.00085300;4.17406100;2023-02-01T04:26:25;7.80;99.90
9800;DHT22;4939;52.00085300;4.17406100;2023-02-01T04:28:51;7.80;99.90
9800;DHT22;4939;52.00085300;4.17406100;2023-02-01T04:31:18;7.80;99.90
9800;DHT22;4939;52.00085300;4.17406100;2023-02-01T04:33:55;7.80;99.90
9800;DHT22;4939;52.00085300;4.17406100;2023-02-01T04:36:23;7.70;99.90
9800;DHT22;4939;52.00085300;4.17406100;2023-02-01T04:38:52;7.70;99.90
9800;DHT22;4939;52.00085300;4.17406100;2023-02-01T04:41:18;7.70;99.90
9800;DHT22;4939;52.00085300;4.17406100;2023-02-01T04:43:48;7.70;99.90
9800;DHT22;4939;52.00085300;4.17406100;2023-02-01T04:46:15;7.70;99.90
9800;DHT22;4939;52.00085300;4.17406100;2023-02-01T04:48:41;7.70;99.90
9800;DHT22;4939;52.00085300;4.17406100;2023-02-01T04:51:07;7.60;99.90
9800;DHT22;4939;52.00085300;4.17406100;2023-02-01T04:53:33;7.60;99.90
9800;DHT22;4939;52.00085300;4.17406100;2023-02-01T04:55:58;7.60;99.90
9800;DHT22;4939;52.00085300;4.17406100;2023-02-01T04:58:24;7.60;99.90
9800;DHT22;4939;52.00085300;4.17406100;2023-02-01T05:00:50;7.60;99.90
9800;DHT22;4939;52.00085300;4.17406100;2023-02-01T05:03:17;7.50;99.90
9800;DHT22;4939;52.00085300;4.17406100;2023-02-01T05:05:43;7.50;99.90
9800;DHT22;4939;52.00085300;4.17406100;2023-02-01T05:08:08;7.50;99.90
9800;DHT22;4939;52.00085300;4.17406100;2023-02-01T05:10:34;7.50;99.90
9800;DHT22;4939;52.00085300;4.17406100;2023-02-01T05:13:00;7.50;99.90
9800;DHT22;4939;52.00085300;4.17406100;2023-02-01T05:15:44;7.50;99.90
9800;DHT22;4939;52.00085300;4.17406100;2023-02-01T05:18:12;7.50;99.90
9800;DHT22;4939;52.00085300;4.17406100;2023-02-01T05:20:38;7.50;99.90
9800;DHT22;4939;52.00085300;4.17406100;2023-02-01T05:23:03;7.50;99.90
9800;DHT22;4939;52.00085300;4.17406100;2023-02-01T05:25:29;7.50;99.90
9800;DHT22;4939;52.00085300;4.17406100;2023-02-01T05:27:55;7.50;99.90
9800;DHT22;4939;52.00085300;4.17406100;2023-02-01T05:30:20;7.50;99.90
9800;DHT22;4939;52.00085300;4.17406100;2023-02-01T05:32:52;7.50;99.90
9800;DHT22;4939;52.00085300;4.17406100;2023-02-01T05:35:18;7.50;99.90
9800;DHT22;4939;52.00085300;4.17406100;2023-02-01T05:37:44;7.50;99.90
9800;DHT22;4939;52.00085300;4.17406100;2023-02-01T05:40:10;7.50;99.90
9800;DHT22;4939;52.00085300;4.17406100;2023-02-01T05:42:36;7.50;99.90
9800;DHT22;4939;52.00085300;4.17406100;2023-02-01T05:45:02;7.50;99.90
9800;DHT22;4939;52.00085300;4.17406100;2023-02-01T05:47:30;7.50;99.90
9800;DHT22;4939;52.00085300;4.17406100;2023-02-01T05:49:56;7.50;99.90
9800;DHT22;4939;52.00085300;4.17406100;2023-02-01T05:52:22;7.50;99.90
9800;DHT22;4939;52.00085300;4.17406100;2023-02-01T05:54:48;7.50;99.90
9800;DHT22;4939;52.00085300;4.17406100;2023-02-01T05:57:14;7.50;99.90
9800;DHT22;4939;52.00085300;4.17406100;2023-02-01T05:59:40;7.50;99.90
9800;DHT22;4939;52.00085300;4.17406100;2023-02-01T06:02:09;7.50;99.90
9800;DHT22;4939;52.00085300;4.17406100;2023-02-01T06:04:35;7.50;99.90
9800;DHT22;4939;52.00085300;4.17406100;2023-02-01T06:07:01;7.50;99.90
9800;DHT22;4939;52.00085300;4.17406100;2023-02-01T06:09:27;7.50;99.90
9800;DHT22;4939;52.00085300;4.17406100;2023-02-01T06:11:54;7.60;99.90
9800;DHT22;4939;52.00085300;4.17406100;2023-02-01T06:14:20;7.60;99.90
9800;DHT22;4939;52.00085300;4.17406100;2023-02-01T06:16:46;7.60;99.90
9800;DHT22;4939;52.00085300;4.17406100;2023-02-01T06:19:12;7.60;99.90
9800;DHT22;4939;52.00085300;4.17406100;2023-02-01T06:21:38;7.70;99.90
9800;DHT22;4939;52.00085300;4.17406100;2023-02-01T06:24:04;7.70;99.90
9800;DHT22;4939;52.00085300;4.17406100;2023-02-01T06:26:29;7.70;99.90
9800;DHT22;4939;52.00085300;4.17406100;2023-02-01T06:28:55;7.70;99.90
9800;DHT22;4939;52.00085300;4.17406100;2023-02-01T06:31:22;7.70;99.90
9800;DHT22;4939;52.00085300;4.17406100;2023-02-01T06:33:48;7.70;99.90
9800;DHT22;4939;52.00085300;4.17406100;2023-02-01T06:36:14;7.60;99.90
9800;DHT22;4939;52.00085300;4.17406100;2023-02-01T06:38:41;7.60;99.90
9800;DHT22;4939;52.00085300;4.17406100;2023-02-01T06:41:08;7.70;99.90
9800;DHT22;4939;52.00085300;4.17406100;2023-02-01T06:43:34;7.60;99.90
9800;DHT22;4939;52.00085300;4.17406100;2023-02-01T06:46:05;7.70;99.90
9800;DHT22;4939;52.00085300;4.17406100;2023-02-01T06:48:31;7.60;99.90
9800;DHT22;4939;52.00085300;4.17406100;2023-02-01T06:50:58;7.60;99.90
9800;DHT22;4939;52.00085300;4.17406100;2023-02-01T06:53:23;7.60;99.90
9800;DHT22;4939;52.00085300;4.17406100;2023-02-01T06:55:57;7.60;99.90
9800;DHT22;4939;52.00085300;4.17406100;2023-02-01T06:58:23;7.60;99.90
9800;DHT22;4939;52.00085300;4.17406100;2023-02-01T07:00:49;7.60;99.90
9800;DHT22;4939;52.00085300;4.17406100;2023-02-01T07:03:16;7.60;99.90
9800;DHT22;4939;52.00085300;4.17406100;2023-02-01T07:05:42;7.70;99.90
9800;DHT22;4939;52.00085300;4.17406100;2023-02-01T07:08:07;7.70;99.90
9800;DHT22;4939;52.00085300;4.17406100;2023-02-01T07:10:34;7.70;99.90
9800;DHT22;4939;52.00085300;4.17406100;2023-02-01T07:13:00;7.60;99.90
9800;DHT22;4939;52.00085300;4.17406100;2023-02-01T07:15:25;7.60;99.90
9800;DHT22;4939;52.00085300;4.17406100;2023-02-01T07:17:54;7.60;99.90
9800;DHT22;4939;52.00085300;4.17406100;2023-02-01T07:20:20;7.60;99.90
9800;DHT22;4939;52.00085300;4.17406100;2023-02-01T07:22:45;7.60;99.90
9800;DHT22;4939;52.00085300;4.17406100;2023-02-01T07:25:11;7.60;99.90
9800;DHT22;4939;52.00085300;4.17406100;2023-02-01T07:27:37;7.60;99.90
9800;DHT22;4939;52.00085300;4.17406100;2023-02-01T07:30:06;7.70;99.90
9800;DHT22;4939;52.00085300;4.17406100;2023-02-01T07:32:32;7.70;99.90
9800;DHT22;4939;52.00085300;4.17406100;2023-02-01T07:34:58;7.70;99.90
9800;DHT22;4939;52.00085300;4.17406100;2023-02-01T07:37:24;7.60;99.90
9800;DHT22;4939;52.00085300;4.17406100;2023-02-01T07:39:50;7.60;99.90
9800;DHT22;4939;52.00085300;4.17406100;2023-02-01T07:42:16;7.60;99.90
9800;DHT22;4939;52.00085300;4.17406100;2023-02-01T07:44:42;7.60;99.90
9800;DHT22;4939;52.00085300;4.17406100;2023-02-01T07:47:08;7.60;99.90
9800;DHT22;4939;52.00085300;4.17406100;2023-02-01T07:49:34;7.60;99.90
9800;DHT22;4939;52.00085300;4.17406100;2023-02-01T07:52:00;7.60;99.90
9800;DHT22;4939;52.00085300;4.17406100;2023-02-01T07:54:25;7.60;99.90
9800;DHT22;4939;52.00085300;4.17406100;2023-02-01T07:56:51;7.60;99.90
9800;DHT22;4939;52.00085300;4.17406100;2023-02-01T07:59:17;7.60;99.90
9800;DHT22;4939;52.00085300;4.17406100;2023-02-01T08:01:42;7.70;99.90
9800;DHT22;4939;52.00085300;4.17406100;2023-02-01T08:04:11;7.70;99.90
9800;DHT22;4939;52.00085300;4.17406100;2023-02-01T08:06:37;7.60;99.90
9800;DHT22;4939;52.00085300;4.17406100;2023-02-01T08:09:04;7.70;99.90
9800;DHT22;4939;52.00085300;4.17406100;2023-02-01T08:11:30;7.70;99.90
9800;DHT22;4939;52.00085300;4.17406100;2023-02-01T08:13:57;7.70;99.90
9800;DHT22;4939;52.00085300;4.17406100;2023-02-01T08:16:23;7.80;99.90
9800;DHT22;4939;52.00085300;4.17406100;2023-02-01T08:18:52;7.80;99.90
9800;DHT22;4939;52.00085300;4.17406100;2023-02-01T08:21:23;7.80;99.90
9800;DHT22;4939;52.00085300;4.17406100;2023-02-01T08:23:49;7.80;99.90
9800;DHT22;4939;52.00085300;4.17406100;2023-02-01T08:26:21;7.80;99.90
9800;DHT22;4939;52.00085300;4.17406100;2023-02-01T08:28:55;7.80;99.90
9800;DHT22;4939;52.00085300;4.17406100;2023-02-01T08:31:23;7.80;99.90
9800;DHT22;4939;52.00085300;4.17406100;2023-02-01T08:33:51;7.80;99.90
9800;DHT22;4939;52.00085300;4.17406100;2023-02-01T08:36:18;7.80;99.90
9800;DHT22;4939;52.00085300;4.17406100;2023-02-01T08:38:44;7.90;99.90
9800;DHT22;4939;52.00085300;4.17406100;2023-02-01T08:41:16;7.90;99.90
9800;DHT22;4939;52.00085300;4.17406100;2023-02-01T08:43:43;7.90;99.90
9800;DHT22;4939;52.00085300;4.17406100;2023-02-01T08:46:10;7.90;99.90
9800;DHT22;4939;52.00085300;4.17406100;2023-02-01T08:48:36;7.90;99.90
9800;DHT22;4939;52.00085300;4.17406100;2023-02-01T08:51:12;8.00;99.90
9800;DHT22;4939;52.00085300;4.17406100;2023-02-01T08:53:39;8.00;99.90
9800;DHT22;4939;52.00085300;4.17406100;2023-02-01T08:56:10;8.00;99.90
9800;DHT22;4939;52.00085300;4.17406100;2023-02-01T08:58:36;8.00;99.90
9800;DHT22;4939;52.00085300;4.17406100;2023-02-01T09:01:06;8.00;99.90
9800;DHT22;4939;52.00085300;4.17406100;2023-02-01T09:03:32;8.00;99.90
9800;DHT22;4939;52.00085300;4.17406100;2023-02-01T09:06:12;8.00;99.90
9800;DHT22;4939;52.00085300;4.17406100;2023-02-01T09:08:39;8.10;99.90
9800;DHT22;4939;52.00085300;4.17406100;2023-02-01T09:11:08;8.10;99.90
9800;DHT22;4939;52.00085300;4.17406100;2023-02-01T09:13:35;8.10;99.90
9800;DHT22;4939;52.00085300;4.17406100;2023-02-01T09:16:01;8.20;99.90
9800;DHT22;4939;52.00085300;4.17406100;2023-02-01T09:18:27;8.20;99.90
9800;DHT22;4939;52.00085300;4.17406100;2023-02-01T09:20:52;8.20;99.90
9800;DHT22;4939;52.00085300;4.17406100;2023-02-01T09:23:18;8.20;99.90
9800;DHT22;4939;52.00085300;4.17406100;2023-02-01T09:25:46;8.10;99.90
9800;DHT22;4939;52.00085300;4.17406100;2023-02-01T09:28:11;8.10;99.90
9800;DHT22;4939;52.00085300;4.17406100;2023-02-01T09:30:37;8.10;99.90
9800;DHT22;4939;52.00085300;4.17406100;2023-02-01T09:33:04;8.10;99.90
9800;DHT22;4939;52.00085300;4.17406100;2023-02-01T09:35:30;8.20;99.90
9800;DHT22;4939;52.00085300;4.17406100;2023-02-01T09:37:56;8.30;99.90
9800;DHT22;4939;52.00085300;4.17406100;2023-02-01T09:40:22;8.40;99.90
9800;DHT22;4939;52.00085300;4.17406100;2023-02-01T09:42:56;8.40;99.90
9800;DHT22;4939;52.00085300;4.17406100;2023-02-01T09:48:01;8.30;99.90
9800;DHT22;4939;52.00085300;4.17406100;2023-02-01T09:50:33;8.30;99.90
9800;DHT22;4939;52.00085300;4.17406100;2023-02-01T09:53:26;8.30;99.90
9800;DHT22;4939;52.00085300;4.17406100;2023-02-01T09:55:51;8.20;99.90
9800;DHT22;4939;52.00085300;4.17406100;2023-02-01T10:01:02;8.20;99.90
9800;DHT22;4939;52.00085300;4.17406100;2023-02-01T10:03:30;8.20;99.90
9800;DHT22;4939;52.00085300;4.17406100;2023-02-01T10:12:12;8.20;99.90
9800;DHT22;4939;52.00085300;4.17406100;2023-02-01T10:14:59;8.20;99.90
9800;DHT22;4939;52.00085300;4.17406100;2023-02-01T10:26:20;8.30;99.90
9800;DHT22;4939;52.00085300;4.17406100;2023-02-01T10:28:50;8.30;99.90
9800;DHT22;4939;52.00085300;4.17406100;2023-02-01T10:31:18;8.30;99.90
9800;DHT22;4939;52.00085300;4.17406100;2023-02-01T10:33:51;8.40;99.90
9800;DHT22;4939;52.00085300;4.17406100;2023-02-01T10:39:45;8.50;99.90
9800;DHT22;4939;52.00085300;4.17406100;2023-02-01T10:42:12;8.60;99.90
9800;DHT22;4939;52.00085300;4.17406100;2023-02-01T10:44:42;8.60;99.90
9800;DHT22;4939;52.00085300;4.17406100;2023-02-01T10:47:10;8.60;99.90
9800;DHT22;4939;52.00085300;4.17406100;2023-02-01T10:52:25;8.60;99.90
9800;DHT22;4939;52.00085300;4.17406100;2023-02-01T10:54:54;8.60;99.90
9800;DHT22;4939;52.00085300;4.17406100;2023-02-01T10:57:25;8.60;99.90
9800;DHT22;4939;52.00085300;4.17406100;2023-02-01T10:59:54;8.60;99.90
9800;DHT22;4939;52.00085300;4.17406100;2023-02-01T11:02:30;8.60;99.90
9800;DHT22;4939;52.00085300;4.17406100;2023-02-01T11:07:30;8.60;99.90
9800;DHT22;4939;52.00085300;4.17406100;2023-02-01T11:09:56;8.70;99.90
9800;DHT22;4939;52.00085300;4.17406100;2023-02-01T11:12:37;8.70;99.90
9800;DHT22;4939;52.00085300;4.17406100;2023-02-01T11:15:23;8.80;99.90
9800;DHT22;4939;52.00085300;4.17406100;2023-02-01T11:17:52;8.70;99.90
9800;DHT22;4939;52.00085300;4.17406100;2023-02-01T11:22:57;8.80;99.90
9800;DHT22;4939;52.00085300;4.17406100;2023-02-01T11:25:24;8.80;99.90
9800;DHT22;4939;52.00085300;4.17406100;2023-02-01T11:27:52;8.80;99.90
9800;DHT22;4939;52.00085300;4.17406100;2023-02-01T11:30:34;8.80;99.90
9800;DHT22;4939;52.00085300;4.17406100;2023-02-01T11:33:03;8.80;99.90
9800;DHT22;4939;52.00085300;4.17406100;2023-02-01T11:35:30;8.70;99.90
9800;DHT22;4939;52.00085300;4.17406100;2023-02-01T11:37:58;8.80;99.90
9800;DHT22;4939;52.00085300;4.17406100;2023-02-01T11:40:33;8.80;99.90
9800;DHT22;4939;52.00085300;4.17406100;2023-02-01T11:43:07;8.80;99.90
9800;DHT22;4939;52.00085300;4.17406100;2023-02-01T11:45:34;8.70;99.90
9800;DHT22;4939;52.00085300;4.17406100;2023-02-01T11:48:18;8.80;99.90
9800;DHT22;4939;52.00085300;4.17406100;2023-02-01T11:56:31;8.70;99.90
9800;DHT22;4939;52.00085300;4.17406100;2023-02-01T12:02:03;8.70;99.90
9800;DHT22;4939;52.00085300;4.17406100;2023-02-01T12:08:15;8.70;99.90
9800;DHT22;4939;52.00085300;4.17406100;2023-02-01T12:11:19;8.70;99.90
9800;DHT22;4939;52.00085300;4.17406100;2023-02-01T12:14:02;8.70;99.90
9800;DHT22;4939;52.00085300;4.17406100;2023-02-01T12:17:11;8.70;99.90
9800;DHT22;4939;52.00085300;4.17406100;2023-02-01T12:25:26;9.00;99.90
9800;DHT22;4939;52.00085300;4.17406100;2023-02-01T12:30:34;8.90;99.90
9800;DHT22;4939;52.00085300;4.17406100;2023-02-01T12:39:18;8.80;99.90
9800;DHT22;4939;52.00085300;4.17406100;2023-02-01T12:47:41;8.90;99.90
9800;DHT22;4939;52.00085300;4.17406100;2023-02-01T12:50:45;8.80;99.90
9800;DHT22;4939;52.00085300;4.17406100;2023-02-01T12:56:07;8.70;99.90
9800;DHT22;4939;52.00085300;4.17406100;2023-02-01T12:58:40;8.70;99.90
9800;DHT22;4939;52.00085300;4.17406100;2023-02-01T13:01:30;8.70;99.90
9800;DHT22;4939;52.00085300;4.17406100;2023-02-01T13:04:20;8.70;99.90
9800;DHT22;4939;52.00085300;4.17406100;2023-02-01T13:07:11;8.70;99.90
9800;DHT22;4939;52.00085300;4.17406100;2023-02-01T13:09:51;8.70;99.90
9800;DHT22;4939;52.00085300;4.17406100;2023-02-01T13:12:49;8.80;99.90
9800;DHT22;4939;52.00085300;4.17406100;2023-02-01T13:15:17;8.90;99.90
9800;DHT22;4939;52.00085300;4.17406100;2023-02-01T13:17:45;8.90;99.90
9800;DHT22;4939;52.00085300;4.17406100;2023-02-01T13:20:18;8.90;99.90
9800;DHT22;4939;52.00085300;4.17406100;2023-02-01T13:22:48;8.90;99.90
9800;DHT22;4939;52.00085300;4.17406100;2023-02-01T13:27:50;8.80;99.90
9800;DHT22;4939;52.00085300;4.17406100;2023-02-01T13:30:22;8.80;99.90
9800;DHT22;4939;52.00085300;4.17406100;2023-02-01T13:33:09;8.80;99.90
9800;DHT22;4939;52.00085300;4.17406100;2023-02-01T13:39:02;8.90;99.90
9800;DHT22;4939;52.00085300;4.17406100;2023-02-01T13:41:37;8.80;99.90
9800;DHT22;4939;52.00085300;4.17406100;2023-02-01T13:44:16;8.80;99.90
9800;DHT22;4939;52.00085300;4.17406100;2023-02-01T13:46:46;8.80;99.90
9800;DHT22;4939;52.00085300;4.17406100;2023-02-01T13:49:20;8.80;99.90
9800;DHT22;4939;52.00085300;4.17406100;2023-02-01T13:51:51;8.90;99.90
9800;DHT22;4939;52.00085300;4.17406100;2023-02-01T13:55:02;8.90;99.90
9800;DHT22;4939;52.00085300;4.17406100;2023-02-01T13:57:39;8.90;99.90
9800;DHT22;4939;52.00085300;4.17406100;2023-02-01T14:00:23;9.00;99.90
9800;DHT22;4939;52.00085300;4.17406100;2023-02-01T14:10:57;8.90;99.90
9800;DHT22;4939;52.00085300;4.17406100;2023-02-01T14:13:40;9.00;99.90
9800;DHT22;4939;52.00085300;4.17406100;2023-02-01T14:26:49;9.00;99.90
9800;DHT22;4939;52.00085300;4.17406100;2023-02-01T14:34:14;9.10;99.90
9800;DHT22;4939;52.00085300;4.17406100;2023-02-01T14:36:53;9.10;99.90
9800;DHT22;4939;52.00085300;4.17406100;2023-02-01T14:42:25;9.10;99.90
9800;DHT22;4939;52.00085300;4.17406100;2023-02-01T14:44:54;9.10;99.90
9800;DHT22;4939;52.00085300;4.17406100;2023-02-01T14:52:58;9.10;99.90
9800;DHT22;4939;52.00085300;4.17406100;2023-02-01T14:55:33;9.10;99.90
9800;DHT22;4939;52.00085300;4.17406100;2023-02-01T14:58:01;9.10;99.90
9800;DHT22;4939;52.00085300;4.17406100;2023-02-01T15:00:30;9.10;99.90
9800;DHT22;4939;52.00085300;4.17406100;2023-02-01T15:03:23;9.00;99.90
9800;DHT22;4939;52.00085300;4.17406100;2023-02-01T15:05:57;9.00;99.90
9800;DHT22;4939;52.00085300;4.17406100;2023-02-01T15:08:33;9.10;99.90
9800;DHT22;4939;52.00085300;4.17406100;2023-02-01T15:11:01;9.10;99.90
9800;DHT22;4939;52.00085300;4.17406100;2023-02-01T15:13:29;9.10;99.90
9800;DHT22;4939;52.00085300;4.17406100;2023-02-01T15:18:35;9.10;99.90
9800;DHT22;4939;52.00085300;4.17406100;2023-02-01T15:21:02;9.10;99.90
9800;DHT22;4939;52.00085300;4.17406100;2023-02-01T15:23:28;9.20;99.90
9800;DHT22;4939;52.00085300;4.17406100;2023-02-01T15:25:54;9.20;99.90
9800;DHT22;4939;52.00085300;4.17406100;2023-02-01T15:28:21;9.20;99.90
9800;DHT22;4939;52.00085300;4.17406100;2023-02-01T15:30:54;9.20;99.90
9800;DHT22;4939;52.00085300;4.17406100;2023-02-01T15:33:20;9.20;99.90
9800;DHT22;4939;52.00085300;4.17406100;2023-02-01T15:35:52;9.20;99.90
9800;DHT22;4939;52.00085300;4.17406100;2023-02-01T15:40:56;9.30;99.90
9800;DHT22;4939;52.00085300;4.17406100;2023-02-01T15:43:23;9.20;99.90
9800;DHT22;4939;52.00085300;4.17406100;2023-02-01T15:45:51;9.30;99.90
9800;DHT22;4939;52.00085300;4.17406100;2023-02-01T15:48:23;9.20;99.90
9800;DHT22;4939;52.00085300;4.17406100;2023-02-01T15:50:51;9.20;99.90
9800;DHT22;4939;52.00085300;4.17406100;2023-02-01T15:53:20;9.20;99.90
9800;DHT22;4939;52.00085300;4.17406100;2023-02-01T15:55:51;9.20;99.90
9800;DHT22;4939;52.00085300;4.17406100;2023-02-01T15:58:20;9.20;99.90
9800;DHT22;4939;52.00085300;4.17406100;2023-02-01T16:00:49;9.20;99.90
9800;DHT22;4939;52.00085300;4.17406100;2023-02-01T16:03:34;9.20;99.90
9800;DHT22;4939;52.00085300;4.17406100;2023-02-01T16:06:03;9.10;99.90
9800;DHT22;4939;52.00085300;4.17406100;2023-02-01T16:08:30;9.10;99.90
9800;DHT22;4939;52.00085300;4.17406100;2023-02-01T16:13:33;9.20;99.90
9800;DHT22;4939;52.00085300;4.17406100;2023-02-01T16:15:59;9.20;99.90
9800;DHT22;4939;52.00085300;4.17406100;2023-02-01T16:18:24;9.20;99.90
9800;DHT22;4939;52.00085300;4.17406100;2023-02-01T16:20:50;9.20;99.90
9800;DHT22;4939;52.00085300;4.17406100;2023-02-01T16:23:16;9.20;99.90
9800;DHT22;4939;52.00085300;4.17406100;2023-02-01T16:25:42;9.20;99.90
9800;DHT22;4939;52.00085300;4.17406100;2023-02-01T16:28:07;9.20;99.90
9800;DHT22;4939;52.00085300;4.17406100;2023-02-01T16:30:34;9.30;99.90
9800;DHT22;4939;52.00085300;4.17406100;2023-02-01T16:33:01;9.20;99.90
9800;DHT22;4939;52.00085300;4.17406100;2023-02-01T16:35:33;9.20;99.90